sensor_id;sensor_type;location;lat;lon;timestamp;pressure;altitude;pressure_sealevel;temperature;humidity
58239;BME280;44037;55.638;37.356;2022-08-21T00:00:47;99989.53;;;18.50;40.48
58239;BME280;44037;55.638;37.356;2022-08-21T00:03:15;99982.59;;;18.47;40.13
58239;BME280;44037;55.638;37.356;2022-08-21T00:05:43;99986.13;;;18.45;40.49
58239;BME280;44037;55.638;37.356;2022-08-21T00:08:12;99987.03;;;18.44;40.73
58239;BME280;44037;55.638;37.356;2022-08-21T00:10:40;99986.16;;;18.43;40.69
58239;BME280;44037;55.638;37.356;2022-08-21T00:13:07;99975.69;;;18.40;40.87
58239;BME280;44037;55.638;37.356;2022-08-21T00:15:36;99979.25;;;18.39;40.69
58239;BME280;44037;55.638;37.356;2022-08-21T00:18:04;99970.44;;;18.40;40.59
58239;BME280;44037;55.638;37.356;2022-08-21T00:20:31;99970.53;;;18.37;40.81
58239;BME280;44037;55.638;37.356;2022-08-21T00:22:59;99974.88;;;18.36;41.29
58239;BME280;44037;55.638;37.356;2022-08-21T00:25:27;99970.50;;;18.38;40.75
58239;BME280;44037;55.638;37.356;2022-08-21T00:27:55;99980.09;;;18.39;41.10
58239;BME280;44037;55.638;37.356;2022-08-21T00:30:24;99980.97;;;18.38;41.19
58239;BME280;44037;55.638;37.356;2022-08-21T00:32:52;99980.13;;;18.38;40.56
58239;BME280;44037;55.638;37.356;2022-08-21T00:35:22;99980.19;;;18.35;40.67
58239;BME280;44037;55.638;37.356;2022-08-21T00:37:50;99968.84;;;18.33;40.56
58239;BME280;44037;55.638;37.356;2022-08-21T00:40:22;99970.63;;;18.32;40.65
58239;BME280;44037;55.638;37.356;2022-08-21T00:42:51;99970.63;;;18.32;40.33
58239;BME280;44037;55.638;37.356;2022-08-21T00:45:18;99970.66;;;18.29;40.78
58239;BME280;44037;55.638;37.356;2022-08-21T00:47:46;99972.41;;;18.29;40.52
58239;BME280;44037;55.638;37.356;2022-08-21T00:50:13;99974.22;;;18.26;41.05
58239;BME280;44037;55.638;37.356;2022-08-21T00:52:41;99975.03;;;18.29;40.41
58239;BME280;44037;55.638;37.356;2022-08-21T00:55:11;99978.53;;;18.27;40.49
58239;BME280;44037;55.638;37.356;2022-08-21T00:57:42;99979.50;;;18.23;41.25
58239;BME280;44037;55.638;37.356;2022-08-21T01:00:16;99968.22;;;18.18;41.36
58239;BME280;44037;55.638;37.356;2022-08-21T01:02:44;99981.38;;;18.17;40.94
58239;BME280;44037;55.638;37.356;2022-08-21T01:05:12;99984.03;;;18.14;41.39
58239;BME280;44037;55.638;37.356;2022-08-21T01:07:40;99981.53;;;18.07;41.18
58239;BME280;44037;55.638;37.356;2022-08-21T01:10:08;99985.06;;;18.03;41.33
58239;BME280;44037;55.638;37.356;2022-08-21T01:12:36;99981.66;;;17.98;41.74
58239;BME280;44037;55.638;37.356;2022-08-21T01:15:05;99986.94;;;17.93;42.21
58239;BME280;44037;55.638;37.356;2022-08-21T01:17:35;99981.72;;;17.90;42.48
58239;BME280;44037;55.638;37.356;2022-08-21T01:20:06;99983.53;;;17.88;42.30
58239;BME280;44037;55.638;37.356;2022-08-21T01:22:35;99989.66;;;17.86;41.89
58239;BME280;44037;55.638;37.356;2022-08-21T01:25:04;99979.28;;;17.79;41.99
58239;BME280;44037;55.638;37.356;2022-08-21T01:27:32;99980.25;;;17.74;42.13
58239;BME280;44037;55.638;37.356;2022-08-21T01:30:05;99976.81;;;17.69;42.19
58239;BME280;44037;55.638;37.356;2022-08-21T01:32:34;99981.28;;;17.63;42.78
58239;BME280;44037;55.638;37.356;2022-08-21T01:35:04;99972.56;;;17.61;43.09
58239;BME280;44037;55.638;37.356;2022-08-21T01:37:31;99969.06;;;17.61;43.04
58239;BME280;44037;55.638;37.356;2022-08-21T01:40:00;99983.09;;;17.58;42.65
58239;BME280;44037;55.638;37.356;2022-08-21T01:42:29;99984.00;;;17.54;43.07
58239;BME280;44037;55.638;37.356;2022-08-21T01:44:56;99968.38;;;17.51;42.68
58239;BME280;44037;55.638;37.356;2022-08-21T01:47:23;99967.59;;;17.44;43.29
58239;BME280;44037;55.638;37.356;2022-08-21T01:49:51;99971.13;;;17.40;43.17
58239;BME280;44037;55.638;37.356;2022-08-21T01:52:18;99982.50;;;17.38;43.07
58239;BME280;44037;55.638;37.356;2022-08-21T01:54:45;99979.91;;;17.36;43.31
58239;BME280;44037;55.638;37.356;2022-08-21T01:57:14;99974.69;;;17.34;42.87
58239;BME280;44037;55.638;37.356;2022-08-21T01:59:41;99979.06;;;17.32;43.04
58239;BME280;44037;55.638;37.356;2022-08-21T02:02:08;99985.22;;;17.30;42.78
58239;BME280;44037;55.638;37.356;2022-08-21T02:04:35;99979.13;;;17.29;42.94
58239;BME280;44037;55.638;37.356;2022-08-21T02:07:03;99979.13;;;17.31;43.02
58239;BME280;44037;55.638;37.356;2022-08-21T02:09:30;99981.69;;;17.32;42.97
58239;BME280;44037;55.638;37.356;2022-08-21T02:11:57;99980.78;;;17.35;43.08
58239;BME280;44037;55.638;37.356;2022-08-21T02:14:26;99990.38;;;17.38;42.95
58239;BME280;44037;55.638;37.356;2022-08-21T02:16:53;99983.38;;;17.38;42.35
58239;BME280;44037;55.638;37.356;2022-08-21T02:19:20;99975.53;;;17.37;43.43
58239;BME280;44037;55.638;37.356;2022-08-21T02:21:47;99980.75;;;17.38;42.57
58239;BME280;44037;55.638;37.356;2022-08-21T02:24:14;99982.50;;;17.38;42.69
58239;BME280;44037;55.638;37.356;2022-08-21T02:26:41;99981.59;;;17.40;42.58
58239;BME280;44037;55.638;37.356;2022-08-21T02:29:08;99989.41;;;17.42;42.65
58239;BME280;44037;55.638;37.356;2022-08-21T02:31:37;99984.19;;;17.43;42.61
58239;BME280;44037;55.638;37.356;2022-08-21T02:34:04;99983.25;;;17.46;42.29
58239;BME280;44037;55.638;37.356;2022-08-21T02:36:31;99983.22;;;17.47;42.53
58239;BME280;44037;55.638;37.356;2022-08-21T02:38:58;99986.69;;;17.49;42.90
58239;BME280;44037;55.638;37.356;2022-08-21T02:41:25;99985.75;;;17.55;42.61
58239;BME280;44037;55.638;37.356;2022-08-21T02:43:52;99985.69;;;17.61;42.65
58239;BME280;44037;55.638;37.356;2022-08-21T02:46:20;99986.44;;;17.68;41.63
58239;BME280;44037;55.638;37.356;2022-08-21T02:48:49;99997.72;;;17.73;41.84
58239;BME280;44037;55.638;37.356;2022-08-21T02:51:18;99990.66;;;17.77;41.95
58239;BME280;44037;55.638;37.356;2022-08-21T02:53:46;99995.03;;;17.79;41.78
58239;BME280;44037;55.638;37.356;2022-08-21T02:56:17;99994.13;;;17.80;41.78
58239;BME280;44037;55.638;37.356;2022-08-21T02:58:47;99994.97;;;17.81;41.98
58239;BME280;44037;55.638;37.356;2022-08-21T03:01:14;100000.16;;;17.86;41.46
58239;BME280;44037;55.638;37.356;2022-08-21T03:03:43;99994.84;;;17.90;41.52
58239;BME280;44037;55.638;37.356;2022-08-21T03:06:14;99995.63;;;17.95;41.57
58239;BME280;44037;55.638;37.356;2022-08-21T03:08:42;99985.91;;;18.04;41.26
58239;BME280;44037;55.638;37.356;2022-08-21T03:11:10;99993.69;;;18.10;41.34
58239;BME280;44037;55.638;37.356;2022-08-21T03:13:37;99989.19;;;18.18;40.89
58239;BME280;44037;55.638;37.356;2022-08-21T03:16:06;99993.47;;;18.25;40.93
58239;BME280;44037;55.638;37.356;2022-08-21T03:18:33;99981.97;;;18.33;40.68
58239;BME280;44037;55.638;37.356;2022-08-21T03:21:00;99994.97;;;18.39;40.84
58239;BME280;44037;55.638;37.356;2022-08-21T03:23:29;100002.81;;;18.40;40.55
58239;BME280;44037;55.638;37.356;2022-08-21T03:25:57;99999.25;;;18.43;40.69
58239;BME280;44037;55.638;37.356;2022-08-21T03:28:25;99999.16;;;18.49;40.30
58239;BME280;44037;55.638;37.356;2022-08-21T03:30:52;100008.66;;;18.56;40.14
58239;BME280;44037;55.638;37.356;2022-08-21T03:33:20;99996.28;;;18.65;40.18
58239;BME280;44037;55.638;37.356;2022-08-21T03:35:51;100002.22;;;18.73;40.07
58239;BME280;44037;55.638;37.356;2022-08-21T03:38:21;100005.50;;;18.84;39.70
58239;BME280;44037;55.638;37.356;2022-08-21T03:40:49;100007.97;;;18.94;39.26
58239;BME280;44037;55.638;37.356;2022-08-21T03:43:16;100000.00;;;18.98;39.44
58239;BME280;44037;55.638;37.356;2022-08-21T03:45:43;100004.28;;;19.04;39.38
58239;BME280;44037;55.638;37.356;2022-08-21T03:48:11;100005.00;;;19.12;38.69
58239;BME280;44037;55.638;37.356;2022-08-21T03:50:40;100011.00;;;19.19;38.95
58239;BME280;44037;55.638;37.356;2022-08-21T03:53:09;100006.47;;;19.26;38.78
58239;BME280;44037;55.638;37.356;2022-08-21T03:55:37;100004.59;;;19.32;38.58
58239;BME280;44037;55.638;37.356;2022-08-21T03:58:06;99997.44;;;19.39;38.35
58239;BME280;44037;55.638;37.356;2022-08-21T04:00:34;100001.72;;;19.43;38.11
58239;BME280;44037;55.638;37.356;2022-08-21T04:03:01;99997.19;;;19.50;38.24
58239;BME280;44037;55.638;37.356;2022-08-21T04:05:28;99978.63;;;19.59;37.47
58239;BME280;44037;55.638;37.356;2022-08-21T04:07:56;99981.88;;;19.69;37.24
58239;BME280;44037;55.638;37.356;2022-08-21T04:10:25;99990.47;;;19.77;37.11
58239;BME280;44037;55.638;37.356;2022-08-21T04:12:53;99992.88;;;19.85;37.09
58239;BME280;44037;55.638;37.356;2022-08-21T04:15:24;99999.84;;;19.91;37.24
58239;BME280;44037;55.638;37.356;2022-08-21T04:17:51;99985.63;;;19.98;36.96
58239;BME280;44037;55.638;37.356;2022-08-21T04:20:19;99983.75;;;20.03;36.81
58239;BME280;44037;55.638;37.356;2022-08-21T04:22:47;99991.47;;;20.09;36.47
58239;BME280;44037;55.638;37.356;2022-08-21T04:25:16;99989.50;;;20.18;36.30
58239;BME280;44037;55.638;37.356;2022-08-21T04:27:44;99998.03;;;20.28;36.19
58239;BME280;44037;55.638;37.356;2022-08-21T04:30:13;99989.88;;;20.38;35.80
58239;BME280;44037;55.638;37.356;2022-08-21T04:32:44;99982.81;;;20.40;35.46
58239;BME280;44037;55.638;37.356;2022-08-21T04:35:12;99985.41;;;20.42;35.81
58239;BME280;44037;55.638;37.356;2022-08-21T04:37:40;99989.56;;;20.51;35.79
58239;BME280;44037;55.638;37.356;2022-08-21T04:40:09;99992.72;;;20.64;35.46
58239;BME280;44037;55.638;37.356;2022-08-21T04:42:42;99991.44;;;20.80;35.07
58239;BME280;44037;55.638;37.356;2022-08-21T04:45:16;99986.72;;;20.92;34.96
58239;BME280;44037;55.638;37.356;2022-08-21T04:47:48;99996.97;;;21.02;34.75
58239;BME280;44037;55.638;37.356;2022-08-21T04:50:15;99985.25;;;21.13;34.48
58239;BME280;44037;55.638;37.356;2022-08-21T04:52:42;99992.03;;;21.22;34.01
58239;BME280;44037;55.638;37.356;2022-08-21T04:55:10;100000.63;;;21.28;34.24
58239;BME280;44037;55.638;37.356;2022-08-21T04:57:38;99990.78;;;21.33;33.90
58239;BME280;44037;55.638;37.356;2022-08-21T05:00:07;99983.63;;;21.39;34.13
58239;BME280;44037;55.638;37.356;2022-08-21T05:02:37;99991.47;;;21.40;33.50
58239;BME280;44037;55.638;37.356;2022-08-21T05:05:07;99996.72;;;21.42;33.87
58239;BME280;44037;55.638;37.356;2022-08-21T05:07:34;100007.25;;;21.42;33.76
58239;BME280;44037;55.638;37.356;2022-08-21T05:10:03;99987.84;;;21.44;33.67
58239;BME280;44037;55.638;37.356;2022-08-21T05:12:31;99986.94;;;21.45;33.14
58239;BME280;44037;55.638;37.356;2022-08-21T05:14:58;99988.75;;;21.43;33.49
58239;BME280;44037;55.638;37.356;2022-08-21T05:17:26;99988.00;;;21.40;33.74
58239;BME280;44037;55.638;37.356;2022-08-21T05:19:53;99984.47;;;21.39;33.80
58239;BME280;44037;55.638;37.356;2022-08-21T05:22:22;99981.00;;;21.39;33.66
58239;BME280;44037;55.638;37.356;2022-08-21T05:24:50;99996.88;;;21.36;33.76
58239;BME280;44037;55.638;37.356;2022-08-21T05:27:18;99994.38;;;21.31;33.71
58239;BME280;44037;55.638;37.356;2022-08-21T05:29:45;100002.47;;;21.25;33.98
58239;BME280;44037;55.638;37.356;2022-08-21T05:32:13;100004.19;;;21.26;34.02
58239;BME280;44037;55.638;37.356;2022-08-21T05:34:40;99995.25;;;21.31;33.99
58239;BME280;44037;55.638;37.356;2022-08-21T05:37:10;99998.56;;;21.38;33.96
58239;BME280;44037;55.638;37.356;2022-08-21T05:39:40;100000.13;;;21.44;33.67
58239;BME280;44037;55.638;37.356;2022-08-21T05:42:08;100000.94;;;21.47;33.84
58239;BME280;44037;55.638;37.356;2022-08-21T05:44:35;100003.38;;;21.54;33.93
58239;BME280;44037;55.638;37.356;2022-08-21T05:47:04;99999.72;;;21.59;33.75
58239;BME280;44037;55.638;37.356;2022-08-21T05:49:31;99992.53;;;21.65;33.46
58239;BME280;44037;55.638;37.356;2022-08-21T05:51:58;100002.94;;;21.69;33.32
58239;BME280;44037;55.638;37.356;2022-08-21T05:54:26;99998.38;;;21.74;33.50
58239;BME280;44037;55.638;37.356;2022-08-21T05:56:55;99995.59;;;21.79;33.09
58239;BME280;44037;55.638;37.356;2022-08-21T05:59:22;99992.84;;;21.82;32.88
58239;BME280;44037;55.638;37.356;2022-08-21T06:01:49;99989.28;;;21.85;32.94
58239;BME280;44037;55.638;37.356;2022-08-21T06:04:18;99993.59;;;21.87;33.06
58239;BME280;44037;55.638;37.356;2022-08-21T06:06:45;99994.41;;;21.89;33.34
58239;BME280;44037;55.638;37.356;2022-08-21T06:09:13;99984.59;;;21.93;33.11
58239;BME280;44037;55.638;37.356;2022-08-21T06:11:40;99977.44;;;21.97;32.48
58239;BME280;44037;55.638;37.356;2022-08-21T06:14:08;99982.72;;;21.97;32.06
58239;BME280;44037;55.638;37.356;2022-08-21T06:16:35;99981.97;;;21.93;32.23
58239;BME280;44037;55.638;37.356;2022-08-21T06:19:02;99983.78;;;21.91;33.07
58239;BME280;44037;55.638;37.356;2022-08-21T06:21:30;99981.00;;;21.96;32.79
58239;BME280;44037;55.638;37.356;2022-08-21T06:23:57;99980.06;;;21.98;32.79
58239;BME280;44037;55.638;37.356;2022-08-21T06:26:24;99980.75;;;22.03;32.54
58239;BME280;44037;55.638;37.356;2022-08-21T06:28:51;99971.75;;;22.09;32.80
58239;BME280;44037;55.638;37.356;2022-08-21T06:31:23;99972.34;;;22.19;32.76
58239;BME280;44037;55.638;37.356;2022-08-21T06:33:51;99971.19;;;22.26;32.51
58239;BME280;44037;55.638;37.356;2022-08-21T06:36:19;99976.31;;;22.31;32.14
58239;BME280;44037;55.638;37.356;2022-08-21T06:38:47;99977.91;;;22.36;32.59
58239;BME280;44037;55.638;37.356;2022-08-21T06:41:14;99977.78;;;22.41;32.31
58239;BME280;44037;55.638;37.356;2022-08-21T06:43:41;99977.53;;;22.47;31.76
58239;BME280;44037;55.638;37.356;2022-08-21T06:46:08;99969.47;;;22.52;31.88
58239;BME280;44037;55.638;37.356;2022-08-21T06:48:37;99972.88;;;22.55;32.01
58239;BME280;44037;55.638;37.356;2022-08-21T06:51:04;99965.63;;;22.61;32.09
58239;BME280;44037;55.638;37.356;2022-08-21T06:53:31;99959.25;;;22.68;31.76
58239;BME280;44037;55.638;37.356;2022-08-21T06:55:59;99961.56;;;22.76;31.41
58239;BME280;44037;55.638;37.356;2022-08-21T06:58:26;99961.56;;;22.76;31.74
58239;BME280;44037;55.638;37.356;2022-08-21T07:00:53;99965.91;;;22.78;31.75
58239;BME280;44037;55.638;37.356;2022-08-21T07:03:22;99957.72;;;22.86;31.34
58239;BME280;44037;55.638;37.356;2022-08-21T07:05:51;99960.28;;;22.88;31.43
58239;BME280;44037;55.638;37.356;2022-08-21T07:08:19;99957.47;;;22.92;31.46
58239;BME280;44037;55.638;37.356;2022-08-21T07:10:46;99956.25;;;23.01;31.78
58239;BME280;44037;55.638;37.356;2022-08-21T07:13:14;99949.78;;;23.10;31.25
58239;BME280;44037;55.638;37.356;2022-08-21T07:15:41;99953.97;;;23.15;30.99
58239;BME280;44037;55.638;37.356;2022-08-21T07:18:08;99948.63;;;23.17;31.04
58239;BME280;44037;55.638;37.356;2022-08-21T07:20:36;99946.63;;;23.24;30.81
58239;BME280;44037;55.638;37.356;2022-08-21T07:23:07;99950.88;;;23.28;31.12
58239;BME280;44037;55.638;37.356;2022-08-21T07:25:35;99950.59;;;23.36;30.96
58239;BME280;44037;55.638;37.356;2022-08-21T07:28:03;99947.66;;;23.43;30.89
58239;BME280;44037;55.638;37.356;2022-08-21T07:30:30;99952.56;;;23.53;30.99
58239;BME280;44037;55.638;37.356;2022-08-21T07:32:57;99959.31;;;23.60;30.45
58239;BME280;44037;55.638;37.356;2022-08-21T07:35:24;99955.81;;;23.59;30.42
58239;BME280;44037;55.638;37.356;2022-08-21T07:37:53;99954.91;;;23.60;30.13
58239;BME280;44037;55.638;37.356;2022-08-21T07:40:22;99956.63;;;23.61;30.28
58239;BME280;44037;55.638;37.356;2022-08-21T07:42:49;99945.78;;;23.68;30.33
58239;BME280;44037;55.638;37.356;2022-08-21T07:45:19;99938.66;;;23.70;29.66
58239;BME280;44037;55.638;37.356;2022-08-21T07:47:47;99937.78;;;23.69;29.70
58239;BME280;44037;55.638;37.356;2022-08-21T07:50:15;99946.91;;;23.62;30.08
58239;BME280;44037;55.638;37.356;2022-08-21T07:52:43;99948.56;;;23.65;29.98
58239;BME280;44037;55.638;37.356;2022-08-21T07:55:12;99956.25;;;23.71;29.65
58239;BME280;44037;55.638;37.356;2022-08-21T07:57:42;99938.47;;;23.74;29.81
58239;BME280;44037;55.638;37.356;2022-08-21T08:00:12;99940.72;;;23.84;29.58
58239;BME280;44037;55.638;37.356;2022-08-21T08:02:40;99937.97;;;23.87;29.48
58239;BME280;44037;55.638;37.356;2022-08-21T08:05:09;99924.81;;;23.85;29.30
58239;BME280;44037;55.638;37.356;2022-08-21T08:07:37;99927.47;;;23.85;29.33
58239;BME280;44037;55.638;37.356;2022-08-21T08:10:07;99920.25;;;23.89;29.94
58239;BME280;44037;55.638;37.356;2022-08-21T08:12:34;99926.69;;;24.04;29.46
58239;BME280;44037;55.638;37.356;2022-08-21T08:15:04;99931.34;;;24.19;29.28
58239;BME280;44037;55.638;37.356;2022-08-21T08:17:32;99923.47;;;24.38;28.48
58239;BME280;44037;55.638;37.356;2022-08-21T08:19:59;99923.44;;;24.59;28.68
58239;BME280;44037;55.638;37.356;2022-08-21T08:22:29;99920.59;;;24.84;28.33
58239;BME280;44037;55.638;37.356;2022-08-21T08:24:56;99913.94;;;24.95;28.17
58239;BME280;44037;55.638;37.356;2022-08-21T08:27:25;99912.78;;;25.00;27.85
58239;BME280;44037;55.638;37.356;2022-08-21T08:29:52;99910.91;;;25.03;27.93
58239;BME280;44037;55.638;37.356;2022-08-21T08:32:20;99919.72;;;25.03;27.64
58239;BME280;44037;55.638;37.356;2022-08-21T08:34:49;99903.31;;;24.95;27.00
58239;BME280;44037;55.638;37.356;2022-08-21T08:37:18;99921.16;;;24.91;27.47
58239;BME280;44037;55.638;37.356;2022-08-21T08:39:45;99909.31;;;24.79;27.18
58239;BME280;44037;55.638;37.356;2022-08-21T08:42:14;99901.59;;;24.75;27.41
58239;BME280;44037;55.638;37.356;2022-08-21T08:44:45;99895.44;;;24.74;27.12
58239;BME280;44037;55.638;37.356;2022-08-21T08:47:14;99900.97;;;24.69;27.64
58239;BME280;44037;55.638;37.356;2022-08-21T08:49:49;99913.38;;;24.67;27.65
58239;BME280;44037;55.638;37.356;2022-08-21T08:52:29;99914.03;;;24.73;27.75
58239;BME280;44037;55.638;37.356;2022-08-21T08:55:02;99919.22;;;24.95;27.84
58239;BME280;44037;55.638;37.356;2022-08-21T08:57:31;99906.22;;;25.27;26.98
58239;BME280;44037;55.638;37.356;2022-08-21T09:00:01;99915.31;;;25.59;26.44
58239;BME280;44037;55.638;37.356;2022-08-21T09:02:29;99914.81;;;25.88;26.35
58239;BME280;44037;55.638;37.356;2022-08-21T09:05:00;99908.84;;;26.19;25.64
58239;BME280;44037;55.638;37.356;2022-08-21T09:07:47;99903.97;;;26.45;25.53
58239;BME280;44037;55.638;37.356;2022-08-21T09:10:22;99902.47;;;26.73;24.88
58239;BME280;44037;55.638;37.356;2022-08-21T09:12:59;99901.66;;;27.05;24.91
58239;BME280;44037;55.638;37.356;2022-08-21T09:15:33;99897.06;;;27.24;24.31
58239;BME280;44037;55.638;37.356;2022-08-21T09:18:14;99890.94;;;27.54;24.50
58239;BME280;44037;55.638;37.356;2022-08-21T09:20:57;99899.69;;;27.87;24.20
58239;BME280;44037;55.638;37.356;2022-08-21T09:23:47;99893.63;;;28.15;23.92
58239;BME280;44037;55.638;37.356;2022-08-21T09:26:18;99889.53;;;28.24;23.11
58239;BME280;44037;55.638;37.356;2022-08-21T09:28:52;99898.75;;;28.18;22.20
58239;BME280;44037;55.638;37.356;2022-08-21T09:31:23;99896.66;;;28.09;22.64
58239;BME280;44037;55.638;37.356;2022-08-21T09:33:57;99895.34;;;28.00;22.99
58239;BME280;44037;55.638;37.356;2022-08-21T09:36:31;99896.31;;;27.99;22.73
58239;BME280;44037;55.638;37.356;2022-08-21T09:38:59;99897.47;;;27.95;23.15
58239;BME280;44037;55.638;37.356;2022-08-21T09:41:29;99898.47;;;27.93;23.69
58239;BME280;44037;55.638;37.356;2022-08-21T09:43:56;99903.44;;;27.99;23.54
58239;BME280;44037;55.638;37.356;2022-08-21T09:46:25;99884.34;;;28.07;23.34
58239;BME280;44037;55.638;37.356;2022-08-21T09:48:55;99882.50;;;28.09;23.52
58239;BME280;44037;55.638;37.356;2022-08-21T09:51:27;99887.38;;;28.16;23.57
58239;BME280;44037;55.638;37.356;2022-08-21T09:53:57;99887.47;;;28.29;23.60
58239;BME280;44037;55.638;37.356;2022-08-21T09:56:30;99895.53;;;28.42;23.29
58239;BME280;44037;55.638;37.356;2022-08-21T09:59:24;99890.31;;;28.55;23.24
58239;BME280;44037;55.638;37.356;2022-08-21T10:01:52;99889.09;;;28.61;23.57
58239;BME280;44037;55.638;37.356;2022-08-21T10:04:22;99888.03;;;28.63;23.13
58239;BME280;44037;55.638;37.356;2022-08-21T10:06:50;99896.03;;;28.49;23.22
58239;BME280;44037;55.638;37.356;2022-08-21T10:09:19;99888.72;;;28.38;22.96
58239;BME280;44037;55.638;37.356;2022-08-21T10:11:52;99890.97;;;28.30;22.91
58239;BME280;44037;55.638;37.356;2022-08-21T10:14:36;99882.50;;;28.23;23.05
58239;BME280;44037;55.638;37.356;2022-08-21T10:17:14;99886.03;;;28.24;22.86
58239;BME280;44037;55.638;37.356;2022-08-21T10:19:51;99886.03;;;28.24;22.92
58239;BME280;44037;55.638;37.356;2022-08-21T10:22:32;99879.09;;;28.21;22.91
58239;BME280;44037;55.638;37.356;2022-08-21T10:25:08;99879.75;;;28.25;22.73
58239;BME280;44037;55.638;37.356;2022-08-21T10:27:43;99870.91;;;28.24;22.50
58239;BME280;44037;55.638;37.356;2022-08-21T10:30:18;99874.72;;;28.20;22.48
58239;BME280;44037;55.638;37.356;2022-08-21T10:33:01;99876.78;;;28.15;22.56
58239;BME280;44037;55.638;37.356;2022-08-21T10:35:39;99873.84;;;28.19;22.72
58239;BME280;44037;55.638;37.356;2022-08-21T10:41:15;99861.94;;;28.11;22.67
58239;BME280;44037;55.638;37.356;2022-08-21T10:43:52;99852.59;;;28.03;22.65
58239;BME280;44037;55.638;37.356;2022-08-21T10:46:34;99850.66;;;27.91;23.22
58239;BME280;44037;55.638;37.356;2022-08-21T10:49:16;99847.75;;;27.65;23.30
58239;BME280;44037;55.638;37.356;2022-08-21T10:51:51;99845.88;;;27.35;23.47
58239;BME280;44037;55.638;37.356;2022-08-21T10:54:31;99849.00;;;27.11;23.56
58239;BME280;44037;55.638;37.356;2022-08-21T10:57:07;99842.34;;;26.88;24.07
58239;BME280;44037;55.638;37.356;2022-08-21T10:59:41;99846.31;;;26.63;24.46
58239;BME280;44037;55.638;37.356;2022-08-21T11:02:13;99857.88;;;26.46;25.14
58239;BME280;44037;55.638;37.356;2022-08-21T11:04:50;99856.22;;;26.44;24.86
58239;BME280;44037;55.638;37.356;2022-08-21T11:07:22;99862.84;;;26.52;24.74
58239;BME280;44037;55.638;37.356;2022-08-21T11:09:55;99871.09;;;26.64;24.49
58239;BME280;44037;55.638;37.356;2022-08-21T11:12:33;99862.34;;;26.78;24.25
58239;BME280;44037;55.638;37.356;2022-08-21T11:15:06;99863.00;;;26.99;24.17
58239;BME280;44037;55.638;37.356;2022-08-21T11:17:37;99875.78;;;27.24;23.66
58239;BME280;44037;55.638;37.356;2022-08-21T11:20:09;99868.53;;;27.42;23.65
58239;BME280;44037;55.638;37.356;2022-08-21T11:22:44;99863.59;;;27.52;24.23
58239;BME280;44037;55.638;37.356;2022-08-21T11:25:17;99862.94;;;27.63;23.98
58239;BME280;44037;55.638;37.356;2022-08-21T11:27:52;99857.06;;;27.72;24.25
58239;BME280;44037;55.638;37.356;2022-08-21T11:30:20;99853.47;;;27.73;23.77
58239;BME280;44037;55.638;37.356;2022-08-21T11:33:04;99844.63;;;27.73;23.81
58239;BME280;44037;55.638;37.356;2022-08-21T11:35:39;99836.56;;;27.74;23.51
58239;BME280;44037;55.638;37.356;2022-08-21T11:38:21;99831.13;;;27.62;23.53
58239;BME280;44037;55.638;37.356;2022-08-21T11:41:08;99815.69;;;27.36;23.54
58239;BME280;44037;55.638;37.356;2022-08-21T11:43:41;99807.63;;;27.07;22.95
58239;BME280;44037;55.638;37.356;2022-08-21T11:46:18;99830.13;;;26.68;23.82
58239;BME280;44037;55.638;37.356;2022-08-21T11:48:59;99831.94;;;26.34;23.92
58239;BME280;44037;55.638;37.356;2022-08-21T11:51:33;99832.38;;;26.09;24.43
58239;BME280;44037;55.638;37.356;2022-08-21T11:54:07;99825.19;;;25.93;24.51
58239;BME280;44037;55.638;37.356;2022-08-21T11:56:38;99812.66;;;25.79;24.67
58239;BME280;44037;55.638;37.356;2022-08-21T11:59:12;99814.06;;;25.69;24.54
58239;BME280;44037;55.638;37.356;2022-08-21T12:01:43;99818.19;;;25.57;25.04
58239;BME280;44037;55.638;37.356;2022-08-21T12:04:22;99823.28;;;25.44;24.84
58239;BME280;44037;55.638;37.356;2022-08-21T12:06:49;99818.31;;;25.36;24.84
58239;BME280;44037;55.638;37.356;2022-08-21T12:09:30;99816.59;;;25.35;25.09
58239;BME280;44037;55.638;37.356;2022-08-21T12:12:02;99822.59;;;25.39;24.83
58239;BME280;44037;55.638;37.356;2022-08-21T12:14:41;99806.78;;;25.37;24.71
58239;BME280;44037;55.638;37.356;2022-08-21T12:17:17;99817.88;;;25.45;24.87
58239;BME280;44037;55.638;37.356;2022-08-21T12:19:45;99827.03;;;25.57;24.71
58239;BME280;44037;55.638;37.356;2022-08-21T12:22:13;99830.69;;;25.72;24.71
58239;BME280;44037;55.638;37.356;2022-08-21T12:24:42;99829.03;;;25.87;24.32
58239;BME280;44037;55.638;37.356;2022-08-21T12:27:21;99826.84;;;25.96;24.17
58239;BME280;44037;55.638;37.356;2022-08-21T12:29:54;99835.28;;;26.04;24.18
58239;BME280;44037;55.638;37.356;2022-08-21T12:32:28;99824.34;;;26.10;24.24
58239;BME280;44037;55.638;37.356;2022-08-21T12:35:06;99819.50;;;26.18;23.97
58239;BME280;44037;55.638;37.356;2022-08-21T12:37:38;99815.50;;;26.27;23.64
58239;BME280;44037;55.638;37.356;2022-08-21T12:40:11;99824.06;;;26.32;23.18
58239;BME280;44037;55.638;37.356;2022-08-21T12:42:45;99813.19;;;26.37;23.27
58239;BME280;44037;55.638;37.356;2022-08-21T12:45:19;99796.16;;;26.41;23.12
58239;BME280;44037;55.638;37.356;2022-08-21T12:47:49;99801.13;;;26.47;23.32
58239;BME280;44037;55.638;37.356;2022-08-21T12:50:21;99807.31;;;26.48;22.90
58239;BME280;44037;55.638;37.356;2022-08-21T12:52:58;99800.81;;;26.53;22.96
58239;BME280;44037;55.638;37.356;2022-08-21T12:55:28;99794.97;;;26.63;23.11
58239;BME280;44037;55.638;37.356;2022-08-21T12:57:55;99788.63;;;26.65;22.77
58239;BME280;44037;55.638;37.356;2022-08-21T13:00:26;99786.22;;;26.61;22.85
58239;BME280;44037;55.638;37.356;2022-08-21T13:02:54;99799.88;;;26.55;23.00
58239;BME280;44037;55.638;37.356;2022-08-21T13:05:32;99791.03;;;26.54;23.16
58239;BME280;44037;55.638;37.356;2022-08-21T13:08:03;99789.66;;;26.63;22.64